sensor_id;sensor_type;location;lat;lon;timestamp;temperature;humidity
7384;DHT22;3733;47.994;8.820;2022-07-23T00:00:05;20.40;99.90
7384;DHT22;3733;47.994;8.820;2022-07-23T00:02:31;20.40;99.90
7384;DHT22;3733;47.994;8.820;2022-07-23T00:04:57;20.40;99.90
7384;DHT22;3733;47.994;8.820;2022-07-23T00:07:22;20.30;99.90
7384;DHT22;3733;47.994;8.820;2022-07-23T00:09:48;20.30;99.90
7384;DHT22;3733;47.994;8.820;2022-07-23T00:12:13;20.30;99.90
7384;DHT22;3733;47.994;8.820;2022-07-23T00:14:39;20.30;99.90
7384;DHT22;3733;47.994;8.820;2022-07-23T00:17:05;20.30;99.90
7384;DHT22;3733;47.994;8.820;2022-07-23T00:19:30;20.30;99.90
7384;DHT22;3733;47.994;8.820;2022-07-23T00:21:56;20.30;99.90
7384;DHT22;3733;47.994;8.820;2022-07-23T00:24:21;20.30;99.90
7384;DHT22;3733;47.994;8.820;2022-07-23T00:26:47;20.20;99.90
7384;DHT22;3733;47.994;8.820;2022-07-23T00:29:13;20.20;99.90
7384;DHT22;3733;47.994;8.820;2022-07-23T00:31:38;20.20;99.90
7384;DHT22;3733;47.994;8.820;2022-07-23T00:34:04;20.20;99.90
7384;DHT22;3733;47.994;8.820;2022-07-23T00:36:29;20.20;99.90
7384;DHT22;3733;47.994;8.820;2022-07-23T00:38:56;20.10;99.90
7384;DHT22;3733;47.994;8.820;2022-07-23T00:41:22;20.10;99.90
7384;DHT22;3733;47.994;8.820;2022-07-23T00:43:48;20.00;99.90
7384;DHT22;3733;47.994;8.820;2022-07-23T00:46:19;19.90;99.90
7384;DHT22;3733;47.994;8.820;2022-07-23T00:48:45;19.90;99.90
7384;DHT22;3733;47.994;8.820;2022-07-23T00:51:11;19.90;99.90
7384;DHT22;3733;47.994;8.820;2022-07-23T00:53:36;19.90;99.90
7384;DHT22;3733;47.994;8.820;2022-07-23T00:56:02;19.80;99.90
7384;DHT22;3733;47.994;8.820;2022-07-23T00:58:28;19.80;99.90
7384;DHT22;3733;47.994;8.820;2022-07-23T01:00:53;19.80;99.90
7384;DHT22;3733;47.994;8.820;2022-07-23T01:03:19;19.70;99.90
7384;DHT22;3733;47.994;8.820;2022-07-23T01:05:45;19.60;99.90
7384;DHT22;3733;47.994;8.820;2022-07-23T01:08:11;19.50;99.90
7384;DHT22;3733;47.994;8.820;2022-07-23T01:10:37;19.50;99.90
7384;DHT22;3733;47.994;8.820;2022-07-23T01:13:07;19.50;99.90
7384;DHT22;3733;47.994;8.820;2022-07-23T01:15:34;19.50;99.90
7384;DHT22;3733;47.994;8.820;2022-07-23T01:18:00;19.50;99.90
7384;DHT22;3733;47.994;8.820;2022-07-23T01:20:26;19.50;99.90
7384;DHT22;3733;47.994;8.820;2022-07-23T01:22:52;19.50;99.90
7384;DHT22;3733;47.994;8.820;2022-07-23T01:25:19;19.50;99.90
7384;DHT22;3733;47.994;8.820;2022-07-23T01:27:45;19.50;99.90
7384;DHT22;3733;47.994;8.820;2022-07-23T01:30:11;19.50;99.90
7384;DHT22;3733;47.994;8.820;2022-07-23T01:32:37;19.50;99.90
7384;DHT22;3733;47.994;8.820;2022-07-23T01:35:03;19.40;99.90
7384;DHT22;3733;47.994;8.820;2022-07-23T01:37:29;19.50;99.90
7384;DHT22;3733;47.994;8.820;2022-07-23T01:39:55;19.40;99.90
7384;DHT22;3733;47.994;8.820;2022-07-23T01:42:21;19.40;99.90
7384;DHT22;3733;47.994;8.820;2022-07-23T01:44:46;19.40;99.90
7384;DHT22;3733;47.994;8.820;2022-07-23T01:47:12;19.30;99.90
7384;DHT22;3733;47.994;8.820;2022-07-23T01:49:38;19.30;99.90
7384;DHT22;3733;47.994;8.820;2022-07-23T01:52:03;19.30;99.90
7384;DHT22;3733;47.994;8.820;2022-07-23T01:54:33;19.30;99.90
7384;DHT22;3733;47.994;8.820;2022-07-23T01:57:00;19.30;99.90
7384;DHT22;3733;47.994;8.820;2022-07-23T01:59:27;19.30;99.90
7384;DHT22;3733;47.994;8.820;2022-07-23T02:01:53;19.30;99.90
7384;DHT22;3733;47.994;8.820;2022-07-23T02:04:20;19.30;99.90
7384;DHT22;3733;47.994;8.820;2022-07-23T02:06:47;19.30;99.90
7384;DHT22;3733;47.994;8.820;2022-07-23T02:09:13;19.30;99.90
7384;DHT22;3733;47.994;8.820;2022-07-23T02:11:38;19.30;99.90
7384;DHT22;3733;47.994;8.820;2022-07-23T02:14:04;19.30;99.90
7384;DHT22;3733;47.994;8.820;2022-07-23T02:16:30;19.30;99.90
7384;DHT22;3733;47.994;8.820;2022-07-23T02:18:55;19.30;99.90
7384;DHT22;3733;47.994;8.820;2022-07-23T02:21:21;19.20;99.90
7384;DHT22;3733;47.994;8.820;2022-07-23T02:23:47;19.20;99.90
7384;DHT22;3733;47.994;8.820;2022-07-23T02:26:13;19.20;99.90
7384;DHT22;3733;47.994;8.820;2022-07-23T02:28:38;19.20;99.90
7384;DHT22;3733;47.994;8.820;2022-07-23T02:31:04;19.20;99.90
7384;DHT22;3733;47.994;8.820;2022-07-23T02:33:29;19.30;99.90
7384;DHT22;3733;47.994;8.820;2022-07-23T02:35:55;19.30;99.90
7384;DHT22;3733;47.994;8.820;2022-07-23T02:38:21;19.20;99.90
7384;DHT22;3733;47.994;8.820;2022-07-23T02:40:47;19.20;99.90
7384;DHT22;3733;47.994;8.820;2022-07-23T02:43:12;19.20;99.90
7384;DHT22;3733;47.994;8.820;2022-07-23T02:45:38;19.20;99.90
7384;DHT22;3733;47.994;8.820;2022-07-23T02:48:04;19.20;99.90
7384;DHT22;3733;47.994;8.820;2022-07-23T02:50:29;19.10;99.90
7384;DHT22;3733;47.994;8.820;2022-07-23T02:52:55;19.10;99.90
7384;DHT22;3733;47.994;8.820;2022-07-23T02:55:21;19.10;99.90
7384;DHT22;3733;47.994;8.820;2022-07-23T02:57:46;19.10;99.90
7384;DHT22;3733;47.994;8.820;2022-07-23T03:00:12;19.10;99.90
7384;DHT22;3733;47.994;8.820;2022-07-23T03:02:38;19.20;99.90
7384;DHT22;3733;47.994;8.820;2022-07-23T03:05:04;19.20;99.90
7384;DHT22;3733;47.994;8.820;2022-07-23T03:07:29;19.30;99.90
7384;DHT22;3733;47.994;8.820;2022-07-23T03:09:55;19.30;99.90
7384;DHT22;3733;47.994;8.820;2022-07-23T03:12:21;19.30;99.90
7384;DHT22;3733;47.994;8.820;2022-07-23T03:14:46;19.30;99.90
7384;DHT22;3733;47.994;8.820;2022-07-23T03:17:12;19.20;99.90
7384;DHT22;3733;47.994;8.820;2022-07-23T03:19:37;19.10;99.90
7384;DHT22;3733;47.994;8.820;2022-07-23T03:22:04;19.10;99.90
7384;DHT22;3733;47.994;8.820;2022-07-23T03:24:29;19.10;99.90
7384;DHT22;3733;47.994;8.820;2022-07-23T03:27:14;19.10;99.90
7384;DHT22;3733;47.994;8.820;2022-07-23T03:29:39;19.10;99.90
7384;DHT22;3733;47.994;8.820;2022-07-23T03:32:05;19.10;99.90
7384;DHT22;3733;47.994;8.820;2022-07-23T03:34:31;19.10;99.90
7384;DHT22;3733;47.994;8.820;2022-07-23T03:36:57;19.10;99.90
7384;DHT22;3733;47.994;8.820;2022-07-23T03:39:22;19.10;99.90
7384;DHT22;3733;47.994;8.820;2022-07-23T03:41:48;19.20;99.90
7384;DHT22;3733;47.994;8.820;2022-07-23T03:44:14;19.20;99.90
7384;DHT22;3733;47.994;8.820;2022-07-23T03:46:39;19.20;99.90
7384;DHT22;3733;47.994;8.820;2022-07-23T03:49:05;19.20;99.90
7384;DHT22;3733;47.994;8.820;2022-07-23T03:51:30;19.20;99.90
7384;DHT22;3733;47.994;8.820;2022-07-23T03:53:56;19.20;99.90
7384;DHT22;3733;47.994;8.820;2022-07-23T03:56:22;19.20;99.90
7384;DHT22;3733;47.994;8.820;2022-07-23T03:58:47;19.10;99.90
7384;DHT22;3733;47.994;8.820;2022-07-23T04:01:13;19.10;99.90
7384;DHT22;3733;47.994;8.820;2022-07-23T04:03:39;19.10;99.90
7384;DHT22;3733;47.994;8.820;2022-07-23T04:06:05;19.00;99.90
7384;DHT22;3733;47.994;8.820;2022-07-23T04:08:31;19.00;99.90
7384;DHT22;3733;47.994;8.820;2022-07-23T04:10:57;19.00;99.90
7384;DHT22;3733;47.994;8.820;2022-07-23T04:13:22;19.00;99.90
7384;DHT22;3733;47.994;8.820;2022-07-23T04:15:48;19.00;99.90
7384;DHT22;3733;47.994;8.820;2022-07-23T04:18:14;19.00;99.90
7384;DHT22;3733;47.994;8.820;2022-07-23T04:20:45;19.00;99.90
7384;DHT22;3733;47.994;8.820;2022-07-23T04:23:11;19.00;99.90
7384;DHT22;3733;47.994;8.820;2022-07-23T04:25:36;19.00;99.90
7384;DHT22;3733;47.994;8.820;2022-07-23T04:28:02;19.00;99.90
7384;DHT22;3733;47.994;8.820;2022-07-23T04:30:28;19.00;99.90
7384;DHT22;3733;47.994;8.820;2022-07-23T04:32:53;19.00;99.90
7384;DHT22;3733;47.994;8.820;2022-07-23T04:35:19;19.00;99.90
7384;DHT22;3733;47.994;8.820;2022-07-23T04:37:45;19.00;99.90
7384;DHT22;3733;47.994;8.820;2022-07-23T04:40:11;19.00;99.90
7384;DHT22;3733;47.994;8.820;2022-07-23T04:42:38;19.00;99.90
7384;DHT22;3733;47.994;8.820;2022-07-23T04:45:04;19.00;99.90
7384;DHT22;3733;47.994;8.820;2022-07-23T04:47:30;19.00;99.90
7384;DHT22;3733;47.994;8.820;2022-07-23T04:49:56;19.00;99.90
7384;DHT22;3733;47.994;8.820;2022-07-23T04:52:22;19.00;99.90
7384;DHT22;3733;47.994;8.820;2022-07-23T04:54:48;19.00;99.90
7384;DHT22;3733;47.994;8.820;2022-07-23T04:57:13;18.90;99.90
7384;DHT22;3733;47.994;8.820;2022-07-23T04:59:39;18.90;99.90
7384;DHT22;3733;47.994;8.820;2022-07-23T05:02:04;18.90;99.90
7384;DHT22;3733;47.994;8.820;2022-07-23T05:04:30;18.90;99.90
7384;DHT22;3733;47.994;8.820;2022-07-23T05:06:57;18.80;99.90
7384;DHT22;3733;47.994;8.820;2022-07-23T05:09:22;18.90;99.90
7384;DHT22;3733;47.994;8.820;2022-07-23T05:11:48;18.80;99.90
7384;DHT22;3733;47.994;8.820;2022-07-23T05:14:14;18.90;99.90
7384;DHT22;3733;47.994;8.820;2022-07-23T05:16:40;18.90;99.90
7384;DHT22;3733;47.994;8.820;2022-07-23T05:19:05;18.90;99.90
7384;DHT22;3733;47.994;8.820;2022-07-23T05:21:31;18.90;99.90
7384;DHT22;3733;47.994;8.820;2022-07-23T05:23:57;18.90;99.90
7384;DHT22;3733;47.994;8.820;2022-07-23T05:26:22;18.90;99.90
7384;DHT22;3733;47.994;8.820;2022-07-23T05:28:48;19.00;99.90
7384;DHT22;3733;47.994;8.820;2022-07-23T05:31:14;18.90;99.90
7384;DHT22;3733;47.994;8.820;2022-07-23T05:33:39;18.90;99.90
7384;DHT22;3733;47.994;8.820;2022-07-23T05:36:05;18.90;99.90
7384;DHT22;3733;47.994;8.820;2022-07-23T05:38:32;18.90;99.90
7384;DHT22;3733;47.994;8.820;2022-07-23T05:40:58;18.90;99.90
7384;DHT22;3733;47.994;8.820;2022-07-23T05:43:24;18.80;99.90
7384;DHT22;3733;47.994;8.820;2022-07-23T05:45:49;18.80;99.90
7384;DHT22;3733;47.994;8.820;2022-07-23T05:48:15;18.70;99.90
7384;DHT22;3733;47.994;8.820;2022-07-23T05:50:41;18.70;99.90
7384;DHT22;3733;47.994;8.820;2022-07-23T05:53:07;18.80;99.90
7384;DHT22;3733;47.994;8.820;2022-07-23T05:55:33;18.80;99.90
7384;DHT22;3733;47.994;8.820;2022-07-23T05:57:59;18.90;99.90
7384;DHT22;3733;47.994;8.820;2022-07-23T06:00:25;19.00;99.90
7384;DHT22;3733;47.994;8.820;2022-07-23T06:02:51;19.10;99.90
7384;DHT22;3733;47.994;8.820;2022-07-23T06:05:17;19.20;99.90
7384;DHT22;3733;47.994;8.820;2022-07-23T06:07:43;19.20;99.90
7384;DHT22;3733;47.994;8.820;2022-07-23T06:10:08;19.30;99.90
7384;DHT22;3733;47.994;8.820;2022-07-23T06:12:34;19.30;99.90
7384;DHT22;3733;47.994;8.820;2022-07-23T06:15:00;19.30;99.90
7384;DHT22;3733;47.994;8.820;2022-07-23T06:17:26;19.40;99.90
7384;DHT22;3733;47.994;8.820;2022-07-23T06:19:53;19.40;99.90
7384;DHT22;3733;47.994;8.820;2022-07-23T06:22:18;19.50;99.90
7384;DHT22;3733;47.994;8.820;2022-07-23T06:24:44;19.60;99.90
7384;DHT22;3733;47.994;8.820;2022-07-23T06:27:10;19.70;99.90
7384;DHT22;3733;47.994;8.820;2022-07-23T06:29:36;19.80;99.90
7384;DHT22;3733;47.994;8.820;2022-07-23T06:32:01;19.90;99.90
7384;DHT22;3733;47.994;8.820;2022-07-23T06:34:27;20.00;99.90
7384;DHT22;3733;47.994;8.820;2022-07-23T06:36:53;20.00;99.90
7384;DHT22;3733;47.994;8.820;2022-07-23T06:39:18;20.10;99.90
7384;DHT22;3733;47.994;8.820;2022-07-23T06:41:44;20.20;99.90
7384;DHT22;3733;47.994;8.820;2022-07-23T06:44:09;20.30;99.90
7384;DHT22;3733;47.994;8.820;2022-07-23T06:46:35;20.40;99.90
7384;DHT22;3733;47.994;8.820;2022-07-23T06:49:01;20.50;99.90
7384;DHT22;3733;47.994;8.820;2022-07-23T06:51:26;20.60;99.90
7384;DHT22;3733;47.994;8.820;2022-07-23T06:53:52;20.60;99.90
7384;DHT22;3733;47.994;8.820;2022-07-23T06:56:18;20.60;99.90
7384;DHT22;3733;47.994;8.820;2022-07-23T06:58:43;20.60;99.90
7384;DHT22;3733;47.994;8.820;2022-07-23T07:01:09;20.60;99.90
7384;DHT22;3733;47.994;8.820;2022-07-23T07:03:35;20.60;99.90
7384;DHT22;3733;47.994;8.820;2022-07-23T07:06:00;20.70;99.90
7384;DHT22;3733;47.994;8.820;2022-07-23T07:08:27;20.80;99.90
7384;DHT22;3733;47.994;8.820;2022-07-23T07:10:53;20.90;99.90
7384;DHT22;3733;47.994;8.820;2022-07-23T07:13:19;21.10;99.90
7384;DHT22;3733;47.994;8.820;2022-07-23T07:15:44;21.20;99.90
7384;DHT22;3733;47.994;8.820;2022-07-23T07:18:10;21.40;99.90
7384;DHT22;3733;47.994;8.820;2022-07-23T07:20:36;21.40;99.90
7384;DHT22;3733;47.994;8.820;2022-07-23T07:23:01;21.30;99.90
7384;DHT22;3733;47.994;8.820;2022-07-23T07:25:27;21.40;99.90
7384;DHT22;3733;47.994;8.820;2022-07-23T07:27:53;21.50;99.90
7384;DHT22;3733;47.994;8.820;2022-07-23T07:30:18;21.50;99.90
7384;DHT22;3733;47.994;8.820;2022-07-23T07:32:44;21.50;99.90
7384;DHT22;3733;47.994;8.820;2022-07-23T07:35:10;21.50;99.90
7384;DHT22;3733;47.994;8.820;2022-07-23T07:37:35;21.40;99.90
7384;DHT22;3733;47.994;8.820;2022-07-23T07:40:02;21.20;99.90
7384;DHT22;3733;47.994;8.820;2022-07-23T07:42:27;21.10;99.90
7384;DHT22;3733;47.994;8.820;2022-07-23T07:44:53;21.00;99.90
7384;DHT22;3733;47.994;8.820;2022-07-23T07:47:19;21.00;99.90
7384;DHT22;3733;47.994;8.820;2022-07-23T07:49:44;21.00;99.90
7384;DHT22;3733;47.994;8.820;2022-07-23T07:52:10;21.00;99.90
7384;DHT22;3733;47.994;8.820;2022-07-23T07:54:36;21.00;99.90
7384;DHT22;3733;47.994;8.820;2022-07-23T07:57:02;21.00;99.90
7384;DHT22;3733;47.994;8.820;2022-07-23T07:59:28;21.00;99.90
7384;DHT22;3733;47.994;8.820;2022-07-23T08:01:54;21.00;99.90
7384;DHT22;3733;47.994;8.820;2022-07-23T08:04:19;21.00;99.90
7384;DHT22;3733;47.994;8.820;2022-07-23T08:06:45;21.00;99.90
7384;DHT22;3733;47.994;8.820;2022-07-23T08:09:10;20.90;99.90
7384;DHT22;3733;47.994;8.820;2022-07-23T08:11:36;20.80;99.90
7384;DHT22;3733;47.994;8.820;2022-07-23T08:14:02;20.70;99.90
7384;DHT22;3733;47.994;8.820;2022-07-23T08:16:27;20.60;99.90
7384;DHT22;3733;47.994;8.820;2022-07-23T08:18:53;20.60;99.90
7384;DHT22;3733;47.994;8.820;2022-07-23T08:21:19;20.60;99.90
7384;DHT22;3733;47.994;8.820;2022-07-23T08:23:45;20.60;99.90
7384;DHT22;3733;47.994;8.820;2022-07-23T08:26:11;20.70;99.90
7384;DHT22;3733;47.994;8.820;2022-07-23T08:28:36;20.70;99.90
7384;DHT22;3733;47.994;8.820;2022-07-23T08:31:02;20.80;99.90
7384;DHT22;3733;47.994;8.820;2022-07-23T08:33:28;20.80;99.90
7384;DHT22;3733;47.994;8.820;2022-07-23T08:35:54;21.00;99.90
7384;DHT22;3733;47.994;8.820;2022-07-23T08:38:21;21.10;99.90
7384;DHT22;3733;47.994;8.820;2022-07-23T08:40:52;21.20;99.90
7384;DHT22;3733;47.994;8.820;2022-07-23T08:43:20;21.30;99.90
7384;DHT22;3733;47.994;8.820;2022-07-23T08:45:49;21.50;99.90
7384;DHT22;3733;47.994;8.820;2022-07-23T08:48:20;21.60;99.90
7384;DHT22;3733;47.994;8.820;2022-07-23T08:50:49;21.70;99.90
7384;DHT22;3733;47.994;8.820;2022-07-23T08:53:16;21.70;99.90
7384;DHT22;3733;47.994;8.820;2022-07-23T08:55:46;21.80;99.90
7384;DHT22;3733;47.994;8.820;2022-07-23T08:58:12;21.90;99.90
7384;DHT22;3733;47.994;8.820;2022-07-23T09:00:38;21.90;99.90
7384;DHT22;3733;47.994;8.820;2022-07-23T09:03:03;21.90;99.90
7384;DHT22;3733;47.994;8.820;2022-07-23T09:05:29;22.00;99.90
7384;DHT22;3733;47.994;8.820;2022-07-23T09:10:53;22.10;99.90
7384;DHT22;3733;47.994;8.820;2022-07-23T09:13:27;22.20;99.90
7384;DHT22;3733;47.994;8.820;2022-07-23T09:15:54;22.20;99.90
7384;DHT22;3733;47.994;8.820;2022-07-23T09:18:31;22.30;99.90
7384;DHT22;3733;47.994;8.820;2022-07-23T09:21:07;22.40;99.90
7384;DHT22;3733;47.994;8.820;2022-07-23T09:23:42;22.50;99.90
7384;DHT22;3733;47.994;8.820;2022-07-23T09:26:43;22.50;99.90
7384;DHT22;3733;47.994;8.820;2022-07-23T09:29:23;22.60;99.90
7384;DHT22;3733;47.994;8.820;2022-07-23T09:31:58;22.70;99.90
7384;DHT22;3733;47.994;8.820;2022-07-23T09:34:31;22.70;99.90
7384;DHT22;3733;47.994;8.820;2022-07-23T09:39:34;22.90;99.90
7384;DHT22;3733;47.994;8.820;2022-07-23T09:42:20;23.10;99.90
7384;DHT22;3733;47.994;8.820;2022-07-23T09:44:48;23.30;99.90
7384;DHT22;3733;47.994;8.820;2022-07-23T09:47:15;23.40;99.90
7384;DHT22;3733;47.994;8.820;2022-07-23T09:50:00;23.40;99.90
7384;DHT22;3733;47.994;8.820;2022-07-23T09:52:35;23.40;99.90
7384;DHT22;3733;47.994;8.820;2022-07-23T09:55:03;23.40;99.90
7384;DHT22;3733;47.994;8.820;2022-07-23T09:57:31;23.40;99.90
7384;DHT22;3733;47.994;8.820;2022-07-23T10:00:00;23.40;99.90
7384;DHT22;3733;47.994;8.820;2022-07-23T10:02:27;23.40;99.90
7384;DHT22;3733;47.994;8.820;2022-07-23T10:04:54;23.60;99.90
7384;DHT22;3733;47.994;8.820;2022-07-23T10:07:23;23.70;99.90
7384;DHT22;3733;47.994;8.820;2022-07-23T10:09:50;23.90;99.90
7384;DHT22;3733;47.994;8.820;2022-07-23T10:12:18;24.00;99.90
7384;DHT22;3733;47.994;8.820;2022-07-23T10:15:03;24.00;99.90
7384;DHT22;3733;47.994;8.820;2022-07-23T10:17:30;24.10;99.90
7384;DHT22;3733;47.994;8.820;2022-07-23T10:19:56;24.20;99.90
7384;DHT22;3733;47.994;8.820;2022-07-23T10:22:28;24.40;99.90
7384;DHT22;3733;47.994;8.820;2022-07-23T10:25:22;24.50;99.00
7384;DHT22;3733;47.994;8.820;2022-07-23T10:30:43;24.50;97.60
7384;DHT22;3733;47.994;8.820;2022-07-23T10:36:27;24.50;99.10
7384;DHT22;3733;47.994;8.820;2022-07-23T10:39:32;24.60;99.50
7384;DHT22;3733;47.994;8.820;2022-07-23T10:42:15;24.70;97.80
7384;DHT22;3733;47.994;8.820;2022-07-23T10:44:45;24.70;98.80
7384;DHT22;3733;47.994;8.820;2022-07-23T10:47:12;24.90;96.40
7384;DHT22;3733;47.994;8.820;2022-07-23T10:49:52;25.10;93.60
7384;DHT22;3733;47.994;8.820;2022-07-23T10:52:23;25.20;92.30
7384;DHT22;3733;47.994;8.820;2022-07-23T10:57:25;25.50;94.20
7384;DHT22;3733;47.994;8.820;2022-07-23T11:02:29;25.90;92.50
7384;DHT22;3733;47.994;8.820;2022-07-23T11:05:09;25.90;91.10
7384;DHT22;3733;47.994;8.820;2022-07-23T11:07:38;25.80;89.90
7384;DHT22;3733;47.994;8.820;2022-07-23T11:11:24;25.70;90.30
7384;DHT22;3733;47.994;8.820;2022-07-23T11:13:42;25.50;86.60
7384;DHT22;3733;47.994;8.820;2022-07-23T11:16:23;25.40;91.60
7384;DHT22;3733;47.994;8.820;2022-07-23T11:24:09;25.40;94.00
7384;DHT22;3733;47.994;8.820;2022-07-23T11:32:22;26.20;91.20
7384;DHT22;3733;47.994;8.820;2022-07-23T11:34:49;26.30;90.50
7384;DHT22;3733;47.994;8.820;2022-07-23T11:37:41;26.30;92.60
7384;DHT22;3733;47.994;8.820;2022-07-23T11:40:13;26.40;92.50
7384;DHT22;3733;47.994;8.820;2022-07-23T11:42:55;26.50;90.30
7384;DHT22;3733;47.994;8.820;2022-07-23T11:45:22;26.50;85.80
7384;DHT22;3733;47.994;8.820;2022-07-23T11:47:48;26.70;83.10
7384;DHT22;3733;47.994;8.820;2022-07-23T11:50:14;26.70;88.40
7384;DHT22;3733;47.994;8.820;2022-07-23T11:52:40;26.50;90.30
7384;DHT22;3733;47.994;8.820;2022-07-23T11:55:09;26.40;91.30
7384;DHT22;3733;47.994;8.820;2022-07-23T11:57:36;26.30;92.60
7384;DHT22;3733;47.994;8.820;2022-07-23T12:02:32;26.00;94.50
7384;DHT22;3733;47.994;8.820;2022-07-23T12:04:57;25.80;94.90
7384;DHT22;3733;47.994;8.820;2022-07-23T12:07:32;25.50;95.80
7384;DHT22;3733;47.994;8.820;2022-07-23T12:10:01;25.30;96.30
7384;DHT22;3733;47.994;8.820;2022-07-23T12:12:30;25.20;97.70
7384;DHT22;3733;47.994;8.820;2022-07-23T12:15:00;25.00;99.40
7384;DHT22;3733;47.994;8.820;2022-07-23T12:17:30;24.90;98.80
7384;DHT22;3733;47.994;8.820;2022-07-23T12:19:58;24.90;99.00
7384;DHT22;3733;47.994;8.820;2022-07-23T12:22:25;25.00;99.40
7384;DHT22;3733;47.994;8.820;2022-07-23T12:27:23;25.60;95.70
7384;DHT22;3733;47.994;8.820;2022-07-23T12:29:49;26.00;94.30
7384;DHT22;3733;47.994;8.820;2022-07-23T12:32:28;26.30;92.20
7384;DHT22;3733;47.994;8.820;2022-07-23T12:35:06;26.30;90.90
7384;DHT22;3733;47.994;8.820;2022-07-23T12:37:38;26.20;83.40
7384;DHT22;3733;47.994;8.820;2022-07-23T12:42:51;26.60;84.30
7384;DHT22;3733;47.994;8.820;2022-07-23T12:45:17;26.80;80.70
7384;DHT22;3733;47.994;8.820;2022-07-23T12:48:00;26.90;76.20
7384;DHT22;3733;47.994;8.820;2022-07-23T12:53:23;26.90;77.70
7384;DHT22;3733;47.994;8.820;2022-07-23T12:55:50;27.10;76.20
7384;DHT22;3733;47.994;8.820;2022-07-23T12:58:18;27.40;73.10
7384;DHT22;3733;47.994;8.820;2022-07-23T13:00:54;27.80;68.60
7384;DHT22;3733;47.994;8.820;2022-07-23T13:03:26;27.90;66.80
7384;DHT22;3733;47.994;8.820;2022-07-23T13:05:52;28.20;63.40
7384;DHT22;3733;47.994;8.820;2022-07-23T13:08:18;28.30;61.10
7384;DHT22;3733;47.994;8.820;2022-07-23T13:10:44;28.30;59.60
7384;DHT22;3733;47.994;8.820;2022-07-23T13:13:13;28.20;60.60
7384;DHT22;3733;47.994;8.820;2022-07-23T13:15:39;28.10;62.50
7384;DHT22;3733;47.994;8.820;2022-07-23T13:18:05;28.00;62.80
7384;DHT22;3733;47.994;8.820;2022-07-23T13:20:31;27.90;62.70
7384;DHT22;3733;47.994;8.820;2022-07-23T13:22:58;27.70;63.80
7384;DHT22;3733;47.994;8.820;2022-07-23T13:25:23;27.50;64.80
7384;DHT22;3733;47.994;8.820;2022-07-23T13:27:49;27.20;66.30
7384;DHT22;3733;47.994;8.820;2022-07-23T13:30:15;27.00;67.00
7384;DHT22;3733;47.994;8.820;2022-07-23T13:32:40;26.80;68.30
7384;DHT22;3733;47.994;8.820;2022-07-23T13:35:06;26.70;68.50
7384;DHT22;3733;47.994;8.820;2022-07-23T13:37:32;26.70;68.10
7384;DHT22;3733;47.994;8.820;2022-07-23T13:39:58;26.70;65.60
7384;DHT22;3733;47.994;8.820;2022-07-23T13:42:23;26.80;65.30
7384;DHT22;3733;47.994;8.820;2022-07-23T13:44:49;26.90;64.60
7384;DHT22;3733;47.994;8.820;2022-07-23T13:47:14;26.80;66.00
7384;DHT22;3733;47.994;8.820;2022-07-23T13:49:40;26.70;67.00
7384;DHT22;3733;47.994;8.820;2022-07-23T13:52:06;26.60;69.30
7384;DHT22;3733;47.994;8.820;2022-07-23T13:54:31;26.50;65.40
7384;DHT22;3733;47.994;8.820;2022-07-23T13:56:57;26.30;63.90
7384;DHT22;3733;47.994;8.820;2022-07-23T13:59:23;26.20;63.20
7384;DHT22;3733;47.994;8.820;2022-07-23T14:01:48;26.10;63.60
7384;DHT22;3733;47.994;8.820;2022-07-23T14:04:14;26.40;66.50
7384;DHT22;3733;47.994;8.820;2022-07-23T14:06:40;26.90;64.90
7384;DHT22;3733;47.994;8.820;2022-07-23T14:09:05;27.50;58.80
7384;DHT22;3733;47.994;8.820;2022-07-23T14:11:31;28.10;57.40
7384;DHT22;3733;47.994;8.820;2022-07-23T14:13:58;28.70;55.90
7384;DHT22;3733;47.994;8.820;2022-07-23T14:16:26;29.20;54.90
7384;DHT22;3733;47.994;8.820;2022-07-23T14:18:51;29.60;52.70
7384;DHT22;3733;47.994;8.820;2022-07-23T14:21:17;29.90;51.70
7384;DHT22;3733;47.994;8.820;2022-07-23T14:23:43;30.20;50.90
7384;DHT22;3733;47.994;8.820;2022-07-23T14:26:08;30.20;49.50
7384;DHT22;3733;47.994;8.820;2022-07-23T14:28:34;30.10;50.70
7384;DHT22;3733;47.994;8.820;2022-07-23T14:31:00;30.10;50.40
7384;DHT22;3733;47.994;8.820;2022-07-23T14:33:25;30.20;51.00
7384;DHT22;3733;47.994;8.820;2022-07-23T14:35:51;30.40;49.70
7384;DHT22;3733;47.994;8.820;2022-07-23T14:38:17;30.60;48.80
7384;DHT22;3733;47.994;8.820;2022-07-23T14:40:42;30.90;48.80
7384;DHT22;3733;47.994;8.820;2022-07-23T14:43:08;31.10;48.50
7384;DHT22;3733;47.994;8.820;2022-07-23T14:45:34;31.00;48.30
7384;DHT22;3733;47.994;8.820;2022-07-23T14:48:00;30.60;48.40
7384;DHT22;3733;47.994;8.820;2022-07-23T14:50:27;30.20;47.80
7384;DHT22;3733;47.994;8.820;2022-07-23T14:52:53;29.80;47.70
7384;DHT22;3733;47.994;8.820;2022-07-23T14:55:19;29.40;48.20
7384;DHT22;3733;47.994;8.820;2022-07-23T14:57:45;29.10;49.00
7384;DHT22;3733;47.994;8.820;2022-07-23T15:00:11;28.90;49.10
7384;DHT22;3733;47.994;8.820;2022-07-23T15:02:36;28.70;48.80
7384;DHT22;3733;47.994;8.820;2022-07-23T15:05:02;28.70;48.80
7384;DHT22;3733;47.994;8.820;2022-07-23T15:07:29;28.90;48.40
7384;DHT22;3733;47.994;8.820;2022-07-23T15:09:56;29.20;47.90
7384;DHT22;3733;47.994;8.820;2022-07-23T15:12:22;29.70;47.00
7384;DHT22;3733;47.994;8.820;2022-07-23T15:14:47;30.10;46.10
7384;DHT22;3733;47.994;8.820;2022-07-23T15:17:13;30.60;45.10
7384;DHT22;3733;47.994;8.820;2022-07-23T15:19:38;31.00;44.50
7384;DHT22;3733;47.994;8.820;2022-07-23T15:22:04;31.30;43.70
7384;DHT22;3733;47.994;8.820;2022-07-23T15:24:30;31.60;43.70
7384;DHT22;3733;47.994;8.820;2022-07-23T15:26:56;31.90;43.10
7384;DHT22;3733;47.994;8.820;2022-07-23T15:29:22;32.10;42.30
7384;DHT22;3733;47.994;8.820;2022-07-23T15:31:48;32.40;42.30
7384;DHT22;3733;47.994;8.820;2022-07-23T15:34:14;32.60;42.40
7384;DHT22;3733;47.994;8.820;2022-07-23T15:36:40;32.60;41.90
7384;DHT22;3733;47.994;8.820;2022-07-23T15:39:06;32.30;39.90
7384;DHT22;3733;47.994;8.820;2022-07-23T15:41:32;32.00;41.90
7384;DHT22;3733;47.994;8.820;2022-07-23T15:43:58;31.60;41.80
7384;DHT22;3733;47.994;8.820;2022-07-23T15:46:23;31.40;42.50
7384;DHT22;3733;47.994;8.820;2022-07-23T15:48:50;31.30;42.70
7384;DHT22;3733;47.994;8.820;2022-07-23T15:51:16;31.20;41.20
7384;DHT22;3733;47.994;8.820;2022-07-23T15:53:42;31.10;42.60
7384;DHT22;3733;47.994;8.820;2022-07-23T15:56:08;31.30;43.00
7384;DHT22;3733;47.994;8.820;2022-07-23T15:58:34;31.50;42.80
7384;DHT22;3733;47.994;8.820;2022-07-23T16:01:00;31.60;40.60
7384;DHT22;3733;47.994;8.820;2022-07-23T16:03:32;31.60;41.30
7384;DHT22;3733;47.994;8.820;2022-07-23T16:05:57;31.80;40.20
7384;DHT22;3733;47.994;8.820;2022-07-23T16:08:23;31.60;39.60
7384;DHT22;3733;47.994;8.820;2022-07-23T16:10:49;31.20;40.30
7384;DHT22;3733;47.994;8.820;2022-07-23T16:13:14;30.70;42.10
7384;DHT22;3733;47.994;8.820;2022-07-23T16:15:41;30.20;49.10
7384;DHT22;3733;47.994;8.820;2022-07-23T16:18:08;29.80;52.50
7384;DHT22;3733;47.994;8.820;2022-07-23T16:20:35;29.40;54.10
7384;DHT22;3733;47.994;8.820;2022-07-23T16:23:01;29.00;56.30
7384;DHT22;3733;47.994;8.820;2022-07-23T16:25:26;28.70;58.00
7384;DHT22;3733;47.994;8.820;2022-07-23T16:27:52;28.50;61.00
7384;DHT22;3733;47.994;8.820;2022-07-23T16:30:18;28.30;65.00
7384;DHT22;3733;47.994;8.820;2022-07-23T16:32:44;28.00;68.70
7384;DHT22;3733;47.994;8.820;2022-07-23T16:35:10;27.80;73.20
7384;DHT22;3733;47.994;8.820;2022-07-23T16:37:36;27.60;77.10
7384;DHT22;3733;47.994;8.820;2022-07-23T16:40:04;27.40;80.20